Time;durP1;ratioP1;P1;durP2;ratioP2;P2;SDS_P1;SDS_P2;PMS_P1;PMS_P2;Temp;Humidity;BMP_temperature;BMP_pressure;BME280_temperature;BME280_humidity;BME280_pressure;Samples;Min_cycle;Max_cycle;Signal;HPM_P1;HPM_P2
2023/12/10 00:00:36;;;;;;;24.35;5.53;;;9.40;99.90;;;;;;5005114;28;20046;-63
2023/12/10 00:03:02;;;;;;;31.25;5.80;;;9.40;99.90;;;;;;4988654;28;20068;-63
2023/12/10 00:05:31;;;;;;;34.55;5.63;;;9.40;99.90;;;;;;5005709;28;20081;-63
2023/12/10 00:07:57;;;;;;;34.80;5.82;;;9.40;99.90;;;;;;5000545;28;20040;-63
2023/12/10 00:10:22;;;;;;;35.60;7.28;;;9.40;99.90;;;;;;4971923;28;20038;-63
2023/12/10 00:12:48;;;;;;;28.13;4.93;;;9.40;99.90;;;;;;4986912;28;20967;-64
2023/12/10 00:15:14;;;;;;;38.95;5.47;;;9.40;99.90;;;;;;4985689;28;20050;-63
2023/12/10 00:17:40;;;;;;;37.13;5.93;;;9.40;99.90;;;;;;5006240;28;20045;-64
2023/12/10 00:20:06;;;;;;;26.80;6.03;;;9.50;99.90;;;;;;5004935;28;20042;-63
2023/12/10 00:22:32;;;;;;;25.58;4.75;;;9.50;99.90;;;;;;4990621;28;20393;-63
2023/12/10 00:24:57;;;;;;;27.58;5.43;;;9.50;99.90;;;;;;5002409;28;20042;-63
2023/12/10 00:27:23;;;;;;;23.15;4.57;;;9.50;99.90;;;;;;5002295;28;20064;-63
2023/12/10 00:29:49;;;;;;;26.27;4.65;;;9.50;99.90;;;;;;4997112;28;20842;-63
2023/12/10 00:32:15;;;;;;;26.45;5.68;;;9.40;99.90;;;;;;5003273;28;20048;-64
2023/12/10 00:34:40;;;;;;;22.65;5.20;;;9.50;99.90;;;;;;4999366;28;20459;-64
2023/12/10 00:37:06;;;;;;;23.35;4.55;;;9.40;99.90;;;;;;4989975;28;20570;-63
2023/12/10 00:39:32;;;;;;;23.85;4.88;;;9.40;99.90;;;;;;5003777;28;20038;-64
2023/12/10 00:41:57;;;;;;;21.38;5.50;;;9.40;99.90;;;;;;5005212;28;20076;-64
2023/12/10 00:44:23;;;;;;;26.30;5.07;;;9.40;99.90;;;;;;5003472;28;20398;-64
2023/12/10 00:46:49;;;;;;;21.23;5.55;;;9.30;99.90;;;;;;5006542;28;20060;-63
2023/12/10 00:49:14;;;;;;;21.45;4.60;;;9.30;99.90;;;;;;5008655;28;20048;-63
2023/12/10 00:51:40;;;;;;;29.73;4.47;;;9.30;99.90;;;;;;5005039;28;20677;-64
2023/12/10 00:54:06;;;;;;;21.17;4.68;;;9.30;99.90;;;;;;5003019;28;20085;-63
2023/12/10 00:56:33;;;;;;;22.25;4.47;;;9.20;99.90;;;;;;4997309;28;20188;-64
2023/12/10 00:58:59;;;;;;;29.73;5.68;;;9.10;99.90;;;;;;5001194;28;20764;-63
2023/12/10 01:01:25;;;;;;;28.65;4.70;;;9.10;99.90;;;;;;5017754;28;20042;-63
2023/12/10 01:03:51;;;;;;;30.95;5.22;;;9.00;99.90;;;;;;5008780;28;20059;-63
2023/12/10 01:06:17;;;;;;;33.13;5.50;;;9.00;99.90;;;;;;5008635;28;20065;-63
2023/12/10 01:08:43;;;;;;;24.02;5.28;;;9.00;99.90;;;;;;5007071;28;20034;-63
2023/12/10 01:11:09;;;;;;;28.33;6.07;;;8.90;99.90;;;;;;5032679;28;20052;-63
2023/12/10 01:13:35;;;;;;;36.58;6.13;;;9.00;99.90;;;;;;5002060;28;20073;-63
2023/12/10 01:16:01;;;;;;;41.55;6.30;;;8.90;99.90;;;;;;4988542;28;20052;-64
2023/12/10 01:18:26;;;;;;;36.85;6.95;;;8.90;99.90;;;;;;4979718;28;20081;-64
2023/12/10 01:20:52;;;;;;;33.80;6.90;;;8.90;99.90;;;;;;4987101;28;20034;-63
2023/12/10 01:23:18;;;;;;;29.30;6.20;;;8.90;99.90;;;;;;5006383;28;20121;-64
2023/12/10 01:25:44;;;;;;;44.00;8.98;;;8.90;99.90;;;;;;5001989;28;20517;-63
2023/12/10 01:28:10;;;;;;;41.53;6.68;;;8.90;99.90;;;;;;5036583;28;20096;-63
2023/12/10 01:30:37;;;;;;;30.00;7.40;;;8.90;99.90;;;;;;4992000;28;20432;-63
2023/12/10 01:33:02;;;;;;;27.00;5.28;;;8.90;99.90;;;;;;4982194;28;20081;-63
2023/12/10 01:35:29;;;;;;;35.50;8.10;;;8.80;99.90;;;;;;5005090;28;20155;-63
2023/12/10 01:37:55;;;;;;;36.67;6.85;;;8.80;99.90;;;;;;5002577;28;20483;-63
2023/12/10 01:40:21;;;;;;;28.73;6.28;;;8.80;99.90;;;;;;4989153;28;20045;-63
2023/12/10 01:42:47;;;;;;;39.47;9.30;;;8.80;99.90;;;;;;5036813;28;20049;-63
2023/12/10 01:45:13;;;;;;;28.55;6.13;;;8.80;99.90;;;;;;4986769;28;20549;-63
2023/12/10 01:47:43;;;;;;;31.75;5.60;;;8.80;99.90;;;;;;4989985;28;20034;-63
2023/12/10 01:50:12;;;;;;;38.15;6.10;;;8.70;99.90;;;;;;5008145;28;20501;-63
2023/12/10 01:52:43;;;;;;;27.17;5.13;;;8.80;99.90;;;;;;5006154;28;20124;-63
2023/12/10 01:55:09;;;;;;;41.72;5.97;;;8.70;99.90;;;;;;4992007;28;20496;-63
2023/12/10 01:57:36;;;;;;;24.27;5.82;;;8.70;99.90;;;;;;5000979;28;20057;-63
2023/12/10 02:00:06;;;;;;;30.02;5.47;;;8.70;99.90;;;;;;5010630;28;20042;-63
2023/12/10 02:02:36;;;;;;;34.30;6.97;;;8.70;99.90;;;;;;4999175;28;20046;-63
2023/12/10 02:05:06;;;;;;;34.38;6.13;;;8.70;99.90;;;;;;4984104;28;20713;-63
2023/12/10 02:07:32;;;;;;;31.35;5.38;;;8.70;99.90;;;;;;5001909;28;20108;-63
2023/12/10 02:09:58;;;;;;;28.60;6.07;;;8.70;99.90;;;;;;4986866;28;20133;-63
2023/12/10 02:12:24;;;;;;;35.00;5.82;;;8.70;99.90;;;;;;5002091;28;20161;-63
2023/12/10 02:14:50;;;;;;;25.85;5.93;;;8.70;99.90;;;;;;4999277;28;20054;-63
2023/12/10 02:17:16;;;;;;;28.63;5.20;;;8.70;99.90;;;;;;5001629;28;20038;-63
2023/12/10 02:19:42;;;;;;;35.30;5.75;;;8.70;99.90;;;;;;5002585;28;20053;-63
2023/12/10 02:22:13;;;;;;;31.40;5.97;;;8.70;99.90;;;;;;4978737;28;20487;-63
2023/12/10 02:24:58;;;;;;;28.15;5.90;;;8.70;99.90;;;;;;5004781;28;20107;-63
2023/12/10 02:27:25;;;;;;;29.75;6.22;;;8.70;99.90;;;;;;5003584;28;20056;-63
2023/12/10 02:29:51;;;;;;;29.90;6.70;;;8.60;99.90;;;;;;5003451;28;20822;-63
2023/12/10 02:32:17;;;;;;;30.15;6.25;;;8.70;99.90;;;;;;4997408;28;20038;-63
2023/12/10 02:34:42;;;;;;;32.33;6.13;;;8.60;99.90;;;;;;5008132;28;20612;-63
2023/12/10 02:37:08;;;;;;;37.40;6.55;;;8.60;99.90;;;;;;5004694;28;20400;-63
2023/12/10 02:39:34;;;;;;;26.58;4.65;;;8.60;99.90;;;;;;5004709;28;20440;-63
2023/12/10 02:42:00;;;;;;;30.90;5.28;;;8.60;99.90;;;;;;4975935;28;20034;-63
2023/12/10 02:44:25;;;;;;;30.95;5.45;;;8.60;99.90;;;;;;4972208;28;20050;-63
2023/12/10 02:46:51;;;;;;;29.50;4.90;;;8.60;99.90;;;;;;4988929;28;20116;-63
2023/12/10 02:49:17;;;;;;;27.85;5.07;;;8.60;99.90;;;;;;5004488;28;20436;-63
2023/12/10 02:51:43;;;;;;;22.38;4.97;;;8.60;99.90;;;;;;5004235;28;20057;-63
2023/12/10 02:54:09;;;;;;;25.38;5.75;;;8.60;99.90;;;;;;5002405;28;20050;-63
2023/12/10 02:56:34;;;;;;;25.52;5.07;;;8.60;99.90;;;;;;4992349;28;20042;-63
2023/12/10 02:59:00;;;;;;;27.45;5.70;;;8.60;99.90;;;;;;5010328;28;20140;-63
2023/12/10 03:01:29;;;;;;;27.73;4.85;;;8.60;99.90;;;;;;5006960;28;20048;-63
2023/12/10 03:03:55;;;;;;;21.63;4.63;;;8.60;99.90;;;;;;5009234;28;20045;-63
2023/12/10 03:06:21;;;;;;;23.92;4.63;;;8.60;99.90;;;;;;5001331;28;20156;-63
2023/12/10 03:08:46;;;;;;;24.73;4.03;;;8.60;99.90;;;;;;5002370;28;20060;-63
2023/12/10 03:11:12;;;;;;;17.30;3.72;;;8.60;99.90;;;;;;5039714;28;20389;-63
2023/12/10 03:13:38;;;;;;;18.90;3.83;;;8.60;99.90;;;;;;4997285;28;20661;-63
2023/12/10 03:16:04;;;;;;;23.08;3.88;;;8.60;99.90;;;;;;4984426;28;20539;-63
2023/12/10 03:18:30;;;;;;;19.85;3.90;;;8.60;99.90;;;;;;5000044;28;20046;-65
2023/12/10 03:20:55;;;;;;;16.35;4.50;;;8.60;99.90;;;;;;5006903;28;20061;-63
2023/12/10 03:23:21;;;;;;;27.38;5.30;;;8.70;99.90;;;;;;4985412;28;20038;-63
2023/12/10 03:25:47;;;;;;;23.20;4.03;;;8.70;99.90;;;;;;4990917;28;20457;-63
2023/12/10 03:28:12;;;;;;;20.10;4.95;;;8.70;99.90;;;;;;5008170;28;20033;-63
2023/12/10 03:30:38;;;;;;;24.10;5.55;;;8.70;99.90;;;;;;5023990;28;20057;-63
2023/12/10 03:33:04;;;;;;;21.10;4.80;;;8.70;99.90;;;;;;5007668;28;20172;-63
2023/12/10 03:35:30;;;;;;;26.88;5.78;;;8.80;99.90;;;;;;5036952;28;20138;-63
2023/12/10 03:37:56;;;;;;;24.25;5.30;;;8.80;99.90;;;;;;4974765;28;20037;-63
2023/12/10 03:40:21;;;;;;;26.10;5.78;;;8.80;99.90;;;;;;5003447;28;20049;-63
2023/12/10 03:42:47;;;;;;;24.48;4.55;;;8.90;99.90;;;;;;4992584;28;20049;-63
2023/12/10 03:45:14;;;;;;;27.88;5.50;;;8.90;99.90;;;;;;4987028;28;20045;-63
2023/12/10 03:47:44;;;;;;;30.20;4.97;;;8.90;99.90;;;;;;4994087;28;20070;-63
2023/12/10 03:50:10;;;;;;;30.05;5.45;;;8.90;99.90;;;;;;4993949;28;20145;-63
2023/12/10 03:52:35;;;;;;;36.08;5.30;;;9.00;99.90;;;;;;5009005;28;20446;-63
2023/12/10 03:55:01;;;;;;;26.52;4.53;;;9.00;99.90;;;;;;4989225;28;20034;-63
2023/12/10 03:57:27;;;;;;;30.58;5.53;;;9.00;99.90;;;;;;5003312;28;20045;-63
2023/12/10 03:59:52;;;;;;;29.42;5.35;;;9.00;99.90;;;;;;5004209;28;20420;-63
2023/12/10 04:02:18;;;;;;;28.95;5.15;;;9.00;99.90;;;;;;4989784;28;20080;-64
2023/12/10 04:04:44;;;;;;;28.05;5.00;;;9.00;99.90;;;;;;4990572;28;20069;-64
2023/12/10 04:07:10;;;;;;;30.08;5.35;;;9.10;99.90;;;;;;4990035;28;20786;-63
2023/12/10 04:09:35;;;;;;;38.78;6.55;;;9.10;99.90;;;;;;5032107;28;20093;-64
2023/12/10 04:12:01;;;;;;;31.75;5.40;;;9.10;99.90;;;;;;4999119;28;20537;-63
2023/12/10 04:14:28;;;;;;;35.90;6.38;;;9.10;99.90;;;;;;4997297;28;20087;-63
2023/12/10 04:16:54;;;;;;;32.58;6.18;;;9.10;99.90;;;;;;4992937;28;20112;-63
2023/12/10 04:19:20;;;;;;;31.48;6.13;;;9.20;99.90;;;;;;4990157;28;20408;-63
2023/12/10 04:21:45;;;;;;;36.75;6.22;;;9.10;99.90;;;;;;5002813;28;20048;-64
2023/12/10 04:24:11;;;;;;;39.28;5.57;;;9.20;99.90;;;;;;5005605;28;20107;-63
2023/12/10 04:26:37;;;;;;;29.83;5.57;;;9.20;99.90;;;;;;5002183;28;20125;-63
2023/12/10 04:29:03;;;;;;;38.80;6.10;;;9.20;99.90;;;;;;4992657;28;20042;-63
2023/12/10 04:31:28;;;;;;;34.40;6.45;;;9.20;99.90;;;;;;5002312;28;20465;-63
2023/12/10 04:33:54;;;;;;;29.27;5.18;;;9.30;99.90;;;;;;5002440;28;20038;-63
2023/12/10 04:36:20;;;;;;;31.50;5.32;;;9.30;99.90;;;;;;5039736;28;20045;-63
2023/12/10 04:38:46;;;;;;;28.02;4.78;;;9.30;99.90;;;;;;4988597;28;20077;-63
2023/12/10 04:41:12;;;;;;;23.80;5.13;;;9.30;99.90;;;;;;4983350;28;20044;-63
2023/12/10 04:43:38;;;;;;;33.05;6.07;;;9.30;99.90;;;;;;5001289;28;20046;-63
2023/12/10 04:46:04;;;;;;;35.50;5.22;;;9.30;99.90;;;;;;4967976;28;20049;-63
2023/12/10 04:48:30;;;;;;;25.98;4.65;;;9.30;99.90;;;;;;4999807;28;20037;-63
2023/12/10 04:50:55;;;;;;;24.15;5.30;;;9.30;99.90;;;;;;4997953;28;20060;-63
2023/12/10 04:53:21;;;;;;;28.92;5.32;;;9.30;99.90;;;;;;5039231;28;20041;-63
2023/12/10 04:55:47;;;;;;;29.15;4.70;;;9.30;99.90;;;;;;4987301;28;20041;-63
2023/12/10 04:58:12;;;;;;;41.00;7.03;;;9.30;99.90;;;;;;5000194;28;20668;-63
2023/12/10 05:00:38;;;;;;;23.02;4.05;;;9.30;99.90;;;;;;5002609;28;20149;-63
2023/12/10 05:03:04;;;;;;;29.00;6.78;;;9.30;99.90;;;;;;5003968;28;20167;-64
2023/12/10 05:05:29;;;;;;;29.58;5.00;;;9.30;99.90;;;;;;4982352;28;20050;-63
2023/12/10 05:07:56;;;;;;;21.15;4.43;;;9.30;99.90;;;;;;5001594;28;20790;-63
2023/12/10 05:10:22;;;;;;;17.67;4.05;;;9.30;99.90;;;;;;5002078;28;20042;-63
2023/12/10 05:12:48;;;;;;;24.45;3.97;;;9.30;99.90;;;;;;4980206;28;20041;-63
2023/12/10 05:15:14;;;;;;;26.30;4.80;;;9.30;99.90;;;;;;4977035;28;20042;-63
2023/12/10 05:17:40;;;;;;;18.13;2.90;;;9.30;99.90;;;;;;4999448;28;20048;-63
2023/12/10 05:20:07;;;;;;;16.73;3.15;;;9.30;99.90;;;;;;4982831;28;20034;-63
2023/12/10 05:22:33;;;;;;;16.40;4.47;;;9.30;99.90;;;;;;4996623;28;20046;-63
2023/12/10 05:24:59;;;;;;;17.58;2.78;;;9.30;99.90;;;;;;4995495;28;20049;-63
2023/12/10 05:27:25;;;;;;;13.90;2.95;;;9.30;99.90;;;;;;4955110;28;20037;-63
2023/12/10 05:29:51;;;;;;;13.35;3.10;;;9.20;99.90;;;;;;5002414;28;20037;-63
2023/12/10 05:32:16;;;;;;;14.32;2.72;;;9.20;99.90;;;;;;5002836;28;20080;-63
2023/12/10 05:34:42;;;;;;;14.60;2.47;;;9.20;99.90;;;;;;5000842;28;20065;-63
2023/12/10 05:37:08;;;;;;;12.60;2.17;;;9.20;99.90;;;;;;4973775;28;20057;-63
2023/12/10 05:39:34;;;;;;;19.13;4.45;;;9.20;99.90;;;;;;5004740;28;20158;-63
2023/12/10 05:42:00;;;;;;;13.55;2.70;;;9.20;99.90;;;;;;4968018;28;20046;-63
2023/12/10 05:44:26;;;;;;;15.57;2.42;;;9.20;99.90;;;;;;5031958;28;20041;-63
2023/12/10 05:46:52;;;;;;;14.38;3.17;;;9.20;99.90;;;;;;5005564;28;20049;-63
2023/12/10 05:49:18;;;;;;;17.65;3.78;;;9.20;99.90;;;;;;4985350;28;20049;-63
2023/12/10 05:51:44;;;;;;;18.88;3.38;;;9.20;99.90;;;;;;5006175;28;20053;-63
2023/12/10 05:54:09;;;;;;;19.50;3.17;;;9.20;99.90;;;;;;5002395;28;20052;-63
2023/12/10 05:56:35;;;;;;;23.17;3.40;;;9.20;99.90;;;;;;4984415;28;21138;-63
2023/12/10 05:59:01;;;;;;;20.38;4.15;;;9.30;99.90;;;;;;5000030;28;20042;-63
2023/12/10 06:01:27;;;;;;;16.15;3.38;;;9.30;99.90;;;;;;4986429;28;20481;-63
2023/12/10 06:03:53;;;;;;;18.70;3.40;;;9.30;99.90;;;;;;5006903;28;20061;-63
2023/12/10 06:06:18;;;;;;;16.80;3.33;;;9.30;99.90;;;;;;4990491;28;20045;-63
2023/12/10 06:08:44;;;;;;;12.90;2.92;;;9.30;99.90;;;;;;5008084;28;20076;-63
2023/12/10 06:11:10;;;;;;;17.08;3.00;;;9.30;99.90;;;;;;4990908;28;20632;-63
2023/12/10 06:13:36;;;;;;;15.23;2.70;;;9.30;99.90;;;;;;5005522;28;20128;-63
2023/12/10 06:16:02;;;;;;;18.60;2.60;;;9.30;99.90;;;;;;5001230;28;20101;-63
2023/12/10 06:18:41;;;;;;;19.90;4.35;;;9.40;99.90;;;;;;4980585;28;20049;-63
2023/12/10 06:21:07;;;;;;;18.38;2.90;;;9.40;99.90;;;;;;4996938;28;20046;-63
2023/12/10 06:23:33;;;;;;;10.75;2.78;;;9.40;99.90;;;;;;4985104;28;20058;-63
2023/12/10 06:25:59;;;;;;;13.75;3.20;;;9.40;99.90;;;;;;4989381;28;20038;-63
2023/12/10 06:28:25;;;;;;;16.70;3.30;;;9.40;99.90;;;;;;5000653;28;20046;-63
2023/12/10 06:30:51;;;;;;;12.85;1.90;;;9.50;99.90;;;;;;4981583;28;20046;-63
2023/12/10 06:33:16;;;;;;;12.32;2.03;;;9.40;99.90;;;;;;4984525;28;20650;-63
2023/12/10 06:35:42;;;;;;;9.38;1.85;;;9.40;99.90;;;;;;4969454;28;20401;-63
2023/12/10 06:38:08;;;;;;;14.25;2.03;;;9.40;99.90;;;;;;4998037;28;20513;-63
2023/12/10 06:40:34;;;;;;;12.70;1.80;;;9.30;99.90;;;;;;5002214;28;20054;-63
2023/12/10 06:42:59;;;;;;;14.65;2.20;;;9.40;99.90;;;;;;5001323;28;20464;-63
2023/12/10 06:45:25;;;;;;;13.77;2.38;;;9.30;99.90;;;;;;5000930;28;20042;-63
2023/12/10 06:47:51;;;;;;;16.75;2.60;;;9.40;99.90;;;;;;4984274;28;20121;-63
2023/12/10 06:50:17;;;;;;;10.63;1.95;;;9.40;99.90;;;;;;4996933;28;20046;-63
2023/12/10 06:52:43;;;;;;;10.23;1.98;;;9.40;99.90;;;;;;4988095;28;20490;-63
2023/12/10 06:55:09;;;;;;;8.77;2.00;;;9.40;99.90;;;;;;4987420;28;20038;-63
2023/12/10 06:57:35;;;;;;;9.15;1.90;;;9.30;99.90;;;;;;5003277;28;20460;-63
2023/12/10 07:00:00;;;;;;;12.20;2.03;;;9.40;99.90;;;;;;4999110;28;20065;-63
2023/12/10 07:02:26;;;;;;;15.73;2.72;;;9.30;99.90;;;;;;5000439;28;20037;-63
2023/12/10 07:04:52;;;;;;;12.88;3.40;;;9.30;99.90;;;;;;4996577;28;20486;-63
2023/12/10 07:07:17;;;;;;;16.85;3.13;;;9.40;99.90;;;;;;4984630;28;20125;-64
2023/12/10 07:09:43;;;;;;;12.35;2.30;;;9.30;99.90;;;;;;4997532;28;20042;-64
2023/12/10 07:12:09;;;;;;;11.40;2.20;;;9.40;99.90;;;;;;4998823;28;20568;-63
2023/12/10 07:14:35;;;;;;;15.32;2.15;;;9.40;99.90;;;;;;5005229;28;20045;-64
2023/12/10 07:17:00;;;;;;;12.65;2.50;;;9.40;99.90;;;;;;5001165;28;20045;-64
2023/12/10 07:19:26;;;;;;;16.35;3.72;;;9.40;99.90;;;;;;4992319;28;20489;-64
2023/12/10 07:21:52;;;;;;;21.42;4.45;;;9.40;99.90;;;;;;4996595;28;20034;-64
2023/12/10 07:24:22;;;;;;;20.05;4.00;;;9.40;99.90;;;;;;5000513;28;20167;-63
2023/12/10 07:26:48;;;;;;;25.20;4.82;;;9.40;99.90;;;;;;4989763;28;20053;-63
2023/12/10 07:29:14;;;;;;;19.98;3.33;;;9.40;99.90;;;;;;4989949;28;20034;-63
2023/12/10 07:31:39;;;;;;;19.48;3.15;;;9.40;99.90;;;;;;5007540;28;20038;-63
2023/12/10 07:34:05;;;;;;;14.95;3.53;;;9.40;99.90;;;;;;5005860;28;20148;-63
2023/12/10 07:36:31;;;;;;;21.55;6.18;;;9.40;99.90;;;;;;4984793;28;20143;-63
2023/12/10 07:38:56;;;;;;;22.73;6.35;;;9.40;99.90;;;;;;5000610;28;20401;-63
2023/12/10 07:41:22;;;;;;;23.17;5.82;;;9.40;99.90;;;;;;5002896;28;20048;-63
2023/12/10 07:43:48;;;;;;;22.45;4.50;;;9.40;99.90;;;;;;5003114;28;20043;-63
2023/12/10 07:46:14;;;;;;;29.38;5.72;;;9.40;99.90;;;;;;5005229;28;20073;-63
2023/12/10 07:48:39;;;;;;;36.90;6.93;;;9.40;99.90;;;;;;5003544;28;20037;-63
2023/12/10 07:51:05;;;;;;;29.58;5.70;;;9.30;99.90;;;;;;5002769;28;20041;-63
2023/12/10 07:53:31;;;;;;;34.33;5.82;;;9.30;99.90;;;;;;5003250;28;20401;-63
2023/12/10 07:55:57;;;;;;;27.10;5.53;;;9.30;99.90;;;;;;4988374;28;20046;-63
2023/12/10 07:58:22;;;;;;;20.27;4.50;;;9.30;99.90;;;;;;4987713;28;20053;-63
2023/12/10 08:00:48;;;;;;;21.38;5.72;;;9.30;99.90;;;;;;5000609;28;20096;-63
2023/12/10 08:03:14;;;;;;;29.45;5.68;;;9.30;99.90;;;;;;5001863;28;20046;-63
2023/12/10 08:05:40;;;;;;;23.58;6.07;;;9.30;99.90;;;;;;4988555;28;20102;-63
2023/12/10 08:08:06;;;;;;;24.52;5.00;;;9.30;99.90;;;;;;4997083;28;20053;-63
2023/12/10 08:10:32;;;;;;;30.55;5.10;;;9.30;99.90;;;;;;5003651;28;20091;-63
2023/12/10 08:12:58;;;;;;;36.35;6.55;;;9.30;99.90;;;;;;4982432;28;20532;-63
2023/12/10 08:15:25;;;;;;;30.35;7.28;;;9.30;99.90;;;;;;5002886;28;20050;-63
2023/12/10 08:17:52;;;;;;;30.52;5.03;;;9.30;99.90;;;;;;4988166;28;20042;-63
2023/12/10 08:20:17;;;;;;;32.85;5.43;;;9.30;99.90;;;;;;4988938;28;20056;-63
2023/12/10 08:22:43;;;;;;;29.02;4.93;;;9.30;99.90;;;;;;4998781;28;20841;-63
2023/12/10 08:25:09;;;;;;;27.52;4.20;;;9.30;99.90;;;;;;4996699;28;20077;-63
2023/12/10 08:27:35;;;;;;;23.42;3.45;;;9.40;99.90;;;;;;4982513;28;20096;-63
2023/12/10 08:30:01;;;;;;;25.85;3.80;;;9.30;99.90;;;;;;4984013;28;20441;-63
2023/12/10 08:32:27;;;;;;;28.00;4.75;;;9.40;99.90;;;;;;4998998;28;20046;-63
2023/12/10 08:34:53;;;;;;;33.67;5.43;;;9.30;99.90;;;;;;4984684;28;20033;-63
2023/12/10 08:37:19;;;;;;;32.17;4.57;;;9.30;99.90;;;;;;5005250;28;20100;-63
2023/12/10 08:39:48;;;;;;;32.20;5.05;;;9.30;99.90;;;;;;4990111;28;20069;-63
2023/12/10 08:42:14;;;;;;;26.55;4.35;;;9.30;99.90;;;;;;4987302;28;20034;-63
2023/12/10 08:44:39;;;;;;;29.95;5.97;;;9.40;99.90;;;;;;4970823;28;20053;-63
2023/12/10 08:47:05;;;;;;;33.95;5.38;;;9.40;99.90;;;;;;4989425;28;20136;-63
2023/12/10 08:49:31;;;;;;;19.08;3.60;;;9.50;99.90;;;;;;5002985;28;20045;-63
2023/12/10 08:51:57;;;;;;;28.25;4.72;;;9.50;99.90;;;;;;5002574;28;20030;-63
2023/12/10 08:54:23;;;;;;;17.98;3.70;;;9.50;99.90;;;;;;4998796;28;20489;-63
2023/12/10 08:56:49;;;;;;;21.63;3.85;;;9.50;99.90;;;;;;4988055;28;20057;-63
2023/12/10 08:59:15;;;;;;;23.15;3.97;;;9.50;99.90;;;;;;5002720;28;20041;-63
2023/12/10 09:01:41;;;;;;;22.08;4.55;;;9.50;99.90;;;;;;5001943;28;20108;-63
2023/12/10 09:04:07;;;;;;;21.95;4.10;;;9.50;99.90;;;;;;4986475;28;20038;-63
2023/12/10 09:06:33;;;;;;;19.95;3.03;;;9.40;99.90;;;;;;4996585;28;20042;-63
2023/12/10 09:08:59;;;;;;;14.52;2.75;;;9.50;99.90;;;;;;4986330;28;20129;-63
2023/12/10 09:11:25;;;;;;;16.20;3.22;;;9.50;99.90;;;;;;4999481;28;20144;-63
2023/12/10 09:13:50;;;;;;;17.45;3.58;;;9.50;99.90;;;;;;4998166;28;20455;-63
2023/12/10 09:16:22;;;;;;;14.98;3.10;;;9.60;99.90;;;;;;4985195;28;20092;-63
2023/12/10 09:18:49;;;;;;;19.05;3.15;;;9.60;99.90;;;;;;5027845;28;20050;-63
2023/12/10 09:21:14;;;;;;;20.45;3.22;;;9.60;99.90;;;;;;4999161;28;20096;-63
2023/12/10 09:23:41;;;;;;;21.73;3.78;;;9.60;99.90;;;;;;4966983;28;20046;-63
2023/12/10 09:26:07;;;;;;;23.50;3.92;;;9.70;99.90;;;;;;5001970;28;20046;-63
2023/12/10 09:28:33;;;;;;;24.35;4.22;;;9.60;99.90;;;;;;4981874;28;20393;-63
2023/12/10 09:30:59;;;;;;;25.67;4.47;;;9.60;99.90;;;;;;4998955;28;20038;-64
2023/12/10 09:33:25;;;;;;;26.35;4.55;;;9.60;99.90;;;;;;5001137;28;20640;-63
2023/12/10 09:35:50;;;;;;;17.25;3.25;;;9.60;99.90;;;;;;4966726;28;20054;-65
2023/12/10 09:38:16;;;;;;;20.25;4.03;;;9.50;99.90;;;;;;4984312;28;20413;-63
2023/12/10 09:40:42;;;;;;;24.35;4.22;;;9.50;99.90;;;;;;4997994;28;20073;-63
2023/12/10 09:43:08;;;;;;;24.48;3.97;;;9.50;99.90;;;;;;5027530;28;20132;-63
2023/12/10 09:45:33;;;;;;;21.50;3.75;;;9.50;99.90;;;;;;5008678;28;20513;-63
2023/12/10 09:48:01;;;;;;;18.63;3.35;;;9.60;99.90;;;;;;4980878;28;20037;-64
2023/12/10 09:50:28;;;;;;;26.60;3.88;;;9.60;99.90;;;;;;5001629;28;20042;-63
2023/12/10 09:52:54;;;;;;;25.60;4.28;;;9.60;99.90;;;;;;5032024;28;20089;-64
2023/12/10 09:55:20;;;;;;;28.23;6.10;;;9.60;99.90;;;;;;4998787;28;20049;-63
2023/12/10 09:57:46;;;;;;;38.38;5.90;;;9.60;99.90;;;;;;4996507;28;20054;-64
2023/12/10 10:00:12;;;;;;;36.15;6.43;;;9.60;99.90;;;;;;4987759;28;20710;-63
2023/12/10 10:02:38;;;;;;;33.67;5.97;;;9.60;99.90;;;;;;5000813;28;20050;-65
2023/12/10 10:05:07;;;;;;;41.08;6.00;;;9.60;99.90;;;;;;4986475;28;20133;-63
2023/12/10 10:07:33;;;;;;;31.75;5.18;;;9.50;99.90;;;;;;5044735;22;20071;-73
2023/12/10 10:10:00;;;;;;;32.95;7.72;;;9.50;99.90;;;;;;5027885;28;20053;-73
2023/12/10 10:12:30;;;;;;;37.53;6.93;;;9.50;99.90;;;;;;5011585;28;20532;-73
2023/12/10 10:14:57;;;;;;;40.45;7.10;;;9.40;99.90;;;;;;5027931;28;20068;-73
2023/12/10 10:17:35;;;;;;;38.08;6.43;;;9.40;99.90;;;;;;5011594;28;20045;-73
2023/12/10 10:20:04;;;;;;;35.97;7.85;;;9.40;99.90;;;;;;5010023;28;20046;-72
2023/12/10 10:22:30;;;;;;;34.92;8.32;;;9.40;99.90;;;;;;5002015;28;20076;-72
2023/12/10 10:24:56;;;;;;;35.72;6.10;;;9.40;99.90;;;;;;5011704;28;20476;-73
2023/12/10 10:27:23;;;;;;;34.33;6.47;;;9.40;99.90;;;;;;5027191;28;20125;-73
2023/12/10 10:29:53;;;;;;;32.97;6.97;;;9.50;99.90;;;;;;5006806;28;20046;-74
2023/12/10 10:32:20;;;;;;;33.72;5.88;;;9.50;99.90;;;;;;5022030;28;20409;-73
2023/12/10 10:34:47;;;;;;;34.15;6.97;;;9.60;99.90;;;;;;5011336;28;20037;-73
2023/12/10 10:37:15;;;;;;;46.33;8.50;;;9.60;99.90;;;;;;4992155;28;20586;-73
2023/12/10 10:39:41;;;;;;;36.45;8.95;;;9.60;99.90;;;;;;5025183;28;20733;-74
2023/12/10 10:42:08;;;;;;;40.75;7.65;;;9.60;99.90;;;;;;5011307;28;20041;-72
2023/12/10 10:44:43;;;;;;;47.00;10.43;;;9.60;99.90;;;;;;5008183;28;20034;-73
2023/12/10 10:47:09;;;;;;;54.38;7.97;;;9.60;99.90;;;;;;5022591;28;20053;-73
2023/12/10 10:49:44;;;;;;;46.83;8.13;;;9.70;99.90;;;;;;5011025;28;20610;-73
2023/12/10 10:52:15;;;;;;;48.33;8.70;;;9.70;99.90;;;;;;5027803;28;20042;-73
2023/12/10 10:54:42;;;;;;;51.80;7.80;;;9.70;99.90;;;;;;5017332;28;20069;-73
2023/12/10 10:57:08;;;;;;;37.97;7.22;;;9.70;99.90;;;;;;5011062;28;20056;-73
2023/12/10 10:59:34;;;;;;;45.53;8.43;;;9.70;99.90;;;;;;5021180;28;20050;-73
2023/12/10 11:02:08;;;;;;;34.47;6.05;;;9.70;99.90;;;;;;5006113;28;20090;-73
2023/12/10 11:04:37;;;;;;;31.65;6.43;;;9.70;99.90;;;;;;5014924;28;20048;-73
2023/12/10 11:07:05;;;;;;;39.58;7.13;;;9.70;99.90;;;;;;5017457;28;20494;-73
2023/12/10 11:09:31;;;;;;;39.05;5.45;;;9.70;99.90;;;;;;5007490;28;20064;-73
2023/12/10 11:11:58;;;;;;;34.78;6.93;;;9.70;99.90;;;;;;5025922;28;20116;-71
2023/12/10 11:14:24;;;;;;;38.78;7.57;;;9.70;99.90;;;;;;5014884;28;20041;-71
2023/12/10 11:16:57;;;;;;;34.83;7.15;;;9.70;99.90;;;;;;5031566;28;20045;-71
2023/12/10 11:19:23;;;;;;;43.65;8.07;;;9.70;99.90;;;;;;5014959;28;20069;-71
2023/12/10 11:21:50;;;;;;;41.50;7.95;;;9.70;99.90;;;;;;4995014;28;20042;-71
2023/12/10 11:24:16;;;;;;;36.88;6.35;;;9.70;99.90;;;;;;4994970;28;20042;-71
2023/12/10 11:26:42;;;;;;;39.13;7.28;;;9.70;99.90;;;;;;4990203;28;20717;-73
2023/12/10 11:29:08;;;;;;;42.88;7.40;;;9.70;99.90;;;;;;4999463;28;20466;-72
2023/12/10 11:31:37;;;;;;;39.58;6.57;;;9.80;99.90;;;;;;5028966;28;20064;-73
2023/12/10 11:34:03;;;;;;;38.88;7.22;;;9.80;99.90;;;;;;4997810;28;20029;-73
2023/12/10 11:36:29;;;;;;;33.30;6.00;;;9.80;99.90;;;;;;5026717;28;20125;-73
2023/12/10 11:38:55;;;;;;;37.20;7.63;;;9.80;99.90;;;;;;5004739;28;20465;-72
2023/12/10 11:41:23;;;;;;;33.35;6.38;;;9.80;99.90;;;;;;5021831;28;20128;-74
2023/12/10 11:43:49;;;;;;;45.20;9.10;;;9.70;99.90;;;;;;5006242;28;20096;-74
2023/12/10 11:46:22;;;;;;;41.65;7.80;;;9.70;99.90;;;;;;5034414;28;20041;-74
2023/12/10 11:48:49;;;;;;;43.58;7.03;;;9.70;99.90;;;;;;5005236;28;20107;-73
2023/12/10 11:51:17;;;;;;;39.10;7.18;;;9.60;99.90;;;;;;5014109;28;20112;-74
2023/12/10 11:53:43;;;;;;;34.90;6.63;;;9.60;99.90;;;;;;5001984;28;20034;-72
2023/12/10 11:56:09;;;;;;;41.53;7.43;;;9.60;99.90;;;;;;5012883;28;20033;-73
2023/12/10 11:58:35;;;;;;;42.55;7.68;;;9.60;99.90;;;;;;5026666;28;20478;-73
2023/12/10 12:01:02;;;;;;;32.13;6.55;;;9.70;99.90;;;;;;5024899;28;20111;-73
2023/12/10 12:03:32;;;;;;;38.13;7.43;;;9.80;99.90;;;;;;5039661;28;20042;-73
2023/12/10 12:05:59;;;;;;;41.20;5.95;;;9.80;99.90;;;;;;5026894;28;20073;-73
2023/12/10 12:08:26;;;;;;;35.42;6.38;;;9.90;99.90;;;;;;5002395;28;20045;-73
2023/12/10 12:10:53;;;;;;;31.80;5.97;;;9.80;99.90;;;;;;5004362;28;20046;-73
2023/12/10 12:13:19;;;;;;;38.25;5.72;;;9.90;99.90;;;;;;5022887;28;20049;-73
2023/12/10 12:15:49;;;;;;;34.63;6.38;;;9.90;99.90;;;;;;5022365;28;20441;-71
2023/12/10 12:18:15;;;;;;;35.42;7.05;;;9.90;99.90;;;;;;5007475;28;20033;-72
2023/12/10 12:20:42;;;;;;;23.17;5.55;;;10.00;99.90;;;;;;5028261;28;20042;-73
2023/12/10 12:23:08;;;;;;;38.53;6.82;;;10.00;99.90;;;;;;5026528;28;20030;-73
2023/12/10 12:25:35;;;;;;;26.83;5.57;;;10.00;99.90;;;;;;5018002;28;20034;-73
2023/12/10 12:28:10;;;;;;;38.90;5.90;;;10.00;99.90;;;;;;5020022;28;20041;-73
2023/12/10 12:30:36;;;;;;;35.03;6.47;;;10.00;99.90;;;;;;5006667;28;20053;-72
2023/12/10 12:33:03;;;;;;;31.65;6.35;;;9.90;99.90;;;;;;5001039;28;20091;-73
2023/12/10 12:35:29;;;;;;;28.90;5.25;;;9.90;99.90;;;;;;5012333;28;20037;-74
2023/12/10 12:37:56;;;;;;;32.40;6.25;;;9.90;99.90;;;;;;5012948;28;20041;-72
2023/12/10 12:40:22;;;;;;;41.63;6.65;;;9.90;99.90;;;;;;5008798;28;20677;-73